sensor_id;sensor_type;location;lat;lon;timestamp;P1;durP1;ratioP1;P2;durP2;ratioP2
35456;SDS011;21575;51.538;-0.084;2022-11-09T00:01:26;11.73;;;3.00;;
35456;SDS011;21575;51.538;-0.084;2022-11-09T00:03:53;16.27;;;2.58;;
35456;SDS011;21575;51.538;-0.084;2022-11-09T00:06:23;31.80;;;21.80;;
35456;SDS011;21575;51.538;-0.084;2022-11-09T00:08:49;11.60;;;4.20;;
35456;SDS011;21575;51.538;-0.084;2022-11-09T00:11:15;18.02;;;5.07;;
35456;SDS011;21575;51.538;-0.084;2022-11-09T00:13:42;12.85;;;3.85;;
35456;SDS011;21575;51.538;-0.084;2022-11-09T00:16:09;11.93;;;2.92;;
35456;SDS011;21575;51.538;-0.084;2022-11-09T00:18:36;17.10;;;6.38;;
35456;SDS011;21575;51.538;-0.084;2022-11-09T00:21:10;8.48;;;2.90;;
35456;SDS011;21575;51.538;-0.084;2022-11-09T00:23:47;9.77;;;2.65;;
35456;SDS011;21575;51.538;-0.084;2022-11-09T00:26:14;13.23;;;4.35;;
35456;SDS011;21575;51.538;-0.084;2022-11-09T00:28:41;9.45;;;4.30;;
35456;SDS011;21575;51.538;-0.084;2022-11-09T00:31:09;8.02;;;4.47;;
35456;SDS011;21575;51.538;-0.084;2022-11-09T00:33:37;14.27;;;5.75;;
35456;SDS011;21575;51.538;-0.084;2022-11-09T00:36:04;11.57;;;4.18;;
35456;SDS011;21575;51.538;-0.084;2022-11-09T00:38:31;10.80;;;3.20;;
35456;SDS011;21575;51.538;-0.084;2022-11-09T00:41:01;12.25;;;4.22;;
35456;SDS011;21575;51.538;-0.084;2022-11-09T00:43:27;12.88;;;3.05;;
35456;SDS011;21575;51.538;-0.084;2022-11-09T00:45:53;16.25;;;3.72;;
35456;SDS011;21575;51.538;-0.084;2022-11-09T00:48:18;17.70;;;3.00;;
35456;SDS011;21575;51.538;-0.084;2022-11-09T00:50:51;10.45;;;2.50;;
35456;SDS011;21575;51.538;-0.084;2022-11-09T00:53:17;13.07;;;3.38;;
35456;SDS011;21575;51.538;-0.084;2022-11-09T00:58:33;7.53;;;3.30;;
35456;SDS011;21575;51.538;-0.084;2022-11-09T01:01:11;11.18;;;3.10;;
35456;SDS011;21575;51.538;-0.084;2022-11-09T01:03:38;8.02;;;2.72;;
35456;SDS011;21575;51.538;-0.084;2022-11-09T01:06:04;16.00;;;3.35;;
35456;SDS011;21575;51.538;-0.084;2022-11-09T01:08:31;12.45;;;3.30;;
35456;SDS011;21575;51.538;-0.084;2022-11-09T01:11:02;8.40;;;2.92;;
35456;SDS011;21575;51.538;-0.084;2022-11-09T01:13:29;9.95;;;2.78;;
35456;SDS011;21575;51.538;-0.084;2022-11-09T01:15:55;11.30;;;4.00;;
35456;SDS011;21575;51.538;-0.084;2022-11-09T01:18:21;10.13;;;2.50;;
35456;SDS011;21575;51.538;-0.084;2022-11-09T01:20:47;10.52;;;2.42;;
35456;SDS011;21575;51.538;-0.084;2022-11-09T01:23:14;10.65;;;2.85;;
35456;SDS011;21575;51.538;-0.084;2022-11-09T01:25:41;9.00;;;3.08;;
35456;SDS011;21575;51.538;-0.084;2022-11-09T01:28:07;13.85;;;2.55;;
35456;SDS011;21575;51.538;-0.084;2022-11-09T01:30:34;9.50;;;2.97;;
35456;SDS011;21575;51.538;-0.084;2022-11-09T01:33:04;11.35;;;3.15;;
35456;SDS011;21575;51.538;-0.084;2022-11-09T01:35:34;8.35;;;2.95;;
35456;SDS011;21575;51.538;-0.084;2022-11-09T01:38:01;13.05;;;3.97;;
35456;SDS011;21575;51.538;-0.084;2022-11-09T01:40:29;10.15;;;3.15;;
35456;SDS011;21575;51.538;-0.084;2022-11-09T01:42:55;12.75;;;3.05;;
35456;SDS011;21575;51.538;-0.084;2022-11-09T01:45:29;30.95;;;23.02;;
35456;SDS011;21575;51.538;-0.084;2022-11-09T01:47:57;36.05;;;18.25;;
35456;SDS011;21575;51.538;-0.084;2022-11-09T01:50:33;43.35;;;26.50;;
35456;SDS011;21575;51.538;-0.084;2022-11-09T01:53:06;10.95;;;3.35;;
35456;SDS011;21575;51.538;-0.084;2022-11-09T01:55:37;7.25;;;2.40;;
35456;SDS011;21575;51.538;-0.084;2022-11-09T01:58:13;13.73;;;5.63;;
35456;SDS011;21575;51.538;-0.084;2022-11-09T02:00:44;10.05;;;3.95;;
35456;SDS011;21575;51.538;-0.084;2022-11-09T02:03:12;24.75;;;11.77;;
35456;SDS011;21575;51.538;-0.084;2022-11-09T02:05:42;17.55;;;3.47;;
35456;SDS011;21575;51.538;-0.084;2022-11-09T02:08:08;12.27;;;3.88;;
35456;SDS011;21575;51.538;-0.084;2022-11-09T02:10:44;20.88;;;14.95;;
35456;SDS011;21575;51.538;-0.084;2022-11-09T02:13:11;14.63;;;8.52;;
35456;SDS011;21575;51.538;-0.084;2022-11-09T02:15:39;13.75;;;8.07;;
35456;SDS011;21575;51.538;-0.084;2022-11-09T02:18:05;6.97;;;2.22;;
35456;SDS011;21575;51.538;-0.084;2022-11-09T02:20:41;9.85;;;4.07;;
35456;SDS011;21575;51.538;-0.084;2022-11-09T02:23:14;20.67;;;13.75;;
35456;SDS011;21575;51.538;-0.084;2022-11-09T02:25:41;13.82;;;3.13;;
35456;SDS011;21575;51.538;-0.084;2022-11-09T02:28:12;8.27;;;2.97;;
35456;SDS011;21575;51.538;-0.084;2022-11-09T02:30:39;14.32;;;3.38;;
35456;SDS011;21575;51.538;-0.084;2022-11-09T02:33:07;8.75;;;2.50;;
35456;SDS011;21575;51.538;-0.084;2022-11-09T02:35:32;9.25;;;2.90;;
35456;SDS011;21575;51.538;-0.084;2022-11-09T02:37:58;11.27;;;2.50;;
35456;SDS011;21575;51.538;-0.084;2022-11-09T02:40:30;8.05;;;2.30;;
35456;SDS011;21575;51.538;-0.084;2022-11-09T02:43:00;13.32;;;4.93;;
35456;SDS011;21575;51.538;-0.084;2022-11-09T02:45:26;11.05;;;2.17;;
35456;SDS011;21575;51.538;-0.084;2022-11-09T02:47:52;7.47;;;1.80;;
35456;SDS011;21575;51.538;-0.084;2022-11-09T02:50:18;12.93;;;1.98;;
35456;SDS011;21575;51.538;-0.084;2022-11-09T02:52:43;9.43;;;2.42;;
35456;SDS011;21575;51.538;-0.084;2022-11-09T02:55:09;8.48;;;2.50;;
35456;SDS011;21575;51.538;-0.084;2022-11-09T02:57:35;6.18;;;2.00;;
35456;SDS011;21575;51.538;-0.084;2022-11-09T03:00:00;14.18;;;2.70;;
35456;SDS011;21575;51.538;-0.084;2022-11-09T03:02:26;13.98;;;2.50;;
35456;SDS011;21575;51.538;-0.084;2022-11-09T03:04:51;8.20;;;1.98;;
35456;SDS011;21575;51.538;-0.084;2022-11-09T03:07:17;9.60;;;2.17;;
35456;SDS011;21575;51.538;-0.084;2022-11-09T03:09:43;8.25;;;2.08;;
35456;SDS011;21575;51.538;-0.084;2022-11-09T03:12:10;9.05;;;1.92;;
35456;SDS011;21575;51.538;-0.084;2022-11-09T03:14:54;6.45;;;2.03;;
35456;SDS011;21575;51.538;-0.084;2022-11-09T03:17:23;10.50;;;2.40;;
35456;SDS011;21575;51.538;-0.084;2022-11-09T03:19:49;9.07;;;2.67;;
35456;SDS011;21575;51.538;-0.084;2022-11-09T03:22:15;12.82;;;3.30;;
35456;SDS011;21575;51.538;-0.084;2022-11-09T03:24:41;8.70;;;2.60;;
35456;SDS011;21575;51.538;-0.084;2022-11-09T03:27:06;9.82;;;2.67;;
35456;SDS011;21575;51.538;-0.084;2022-11-09T03:29:32;7.15;;;2.65;;
35456;SDS011;21575;51.538;-0.084;2022-11-09T03:31:58;8.88;;;2.10;;
35456;SDS011;21575;51.538;-0.084;2022-11-09T03:34:23;10.48;;;2.50;;
35456;SDS011;21575;51.538;-0.084;2022-11-09T03:36:49;12.35;;;2.33;;
35456;SDS011;21575;51.538;-0.084;2022-11-09T03:39:15;12.80;;;2.35;;
35456;SDS011;21575;51.538;-0.084;2022-11-09T03:41:40;11.98;;;3.20;;
35456;SDS011;21575;51.538;-0.084;2022-11-09T03:44:06;10.45;;;2.15;;
35456;SDS011;21575;51.538;-0.084;2022-11-09T03:46:32;8.57;;;1.60;;
35456;SDS011;21575;51.538;-0.084;2022-11-09T03:48:57;7.20;;;1.70;;
35456;SDS011;21575;51.538;-0.084;2022-11-09T03:51:23;7.28;;;2.25;;
35456;SDS011;21575;51.538;-0.084;2022-11-09T03:53:49;7.40;;;2.15;;
35456;SDS011;21575;51.538;-0.084;2022-11-09T03:56:14;9.48;;;2.08;;
35456;SDS011;21575;51.538;-0.084;2022-11-09T03:58:40;6.53;;;1.67;;
35456;SDS011;21575;51.538;-0.084;2022-11-09T04:01:05;8.18;;;2.72;;
35456;SDS011;21575;51.538;-0.084;2022-11-09T04:03:31;8.40;;;1.63;;
35456;SDS011;21575;51.538;-0.084;2022-11-09T04:05:57;7.97;;;1.67;;
35456;SDS011;21575;51.538;-0.084;2022-11-09T04:08:23;10.07;;;2.47;;
35456;SDS011;21575;51.538;-0.084;2022-11-09T04:10:49;10.45;;;1.73;;
35456;SDS011;21575;51.538;-0.084;2022-11-09T04:13:15;6.45;;;1.55;;
35456;SDS011;21575;51.538;-0.084;2022-11-09T04:15:41;7.82;;;2.42;;
35456;SDS011;21575;51.538;-0.084;2022-11-09T04:18:07;7.90;;;1.60;;
35456;SDS011;21575;51.538;-0.084;2022-11-09T04:20:39;6.38;;;2.35;;
35456;SDS011;21575;51.538;-0.084;2022-11-09T04:23:06;6.47;;;1.38;;
35456;SDS011;21575;51.538;-0.084;2022-11-09T04:25:34;8.35;;;2.17;;
35456;SDS011;21575;51.538;-0.084;2022-11-09T04:28:01;6.03;;;1.90;;
35456;SDS011;21575;51.538;-0.084;2022-11-09T04:30:29;4.82;;;1.88;;
35456;SDS011;21575;51.538;-0.084;2022-11-09T04:32:56;6.10;;;1.63;;
35456;SDS011;21575;51.538;-0.084;2022-11-09T04:35:23;7.32;;;2.33;;
35456;SDS011;21575;51.538;-0.084;2022-11-09T04:38:00;8.65;;;1.73;;
35456;SDS011;21575;51.538;-0.084;2022-11-09T04:40:29;6.50;;;1.80;;
35456;SDS011;21575;51.538;-0.084;2022-11-09T04:42:58;5.28;;;1.17;;
35456;SDS011;21575;51.538;-0.084;2022-11-09T04:45:24;6.45;;;1.83;;
35456;SDS011;21575;51.538;-0.084;2022-11-09T04:47:50;5.85;;;2.75;;
35456;SDS011;21575;51.538;-0.084;2022-11-09T04:50:20;8.27;;;1.20;;
35456;SDS011;21575;51.538;-0.084;2022-11-09T04:52:46;6.22;;;2.20;;
35456;SDS011;21575;51.538;-0.084;2022-11-09T04:55:11;6.68;;;1.98;;
35456;SDS011;21575;51.538;-0.084;2022-11-09T04:57:37;4.68;;;1.23;;
35456;SDS011;21575;51.538;-0.084;2022-11-09T05:00:03;5.22;;;1.00;;
35456;SDS011;21575;51.538;-0.084;2022-11-09T05:02:29;7.07;;;1.30;;
35456;SDS011;21575;51.538;-0.084;2022-11-09T05:04:55;7.00;;;1.42;;
35456;SDS011;21575;51.538;-0.084;2022-11-09T05:07:20;5.53;;;1.30;;
35456;SDS011;21575;51.538;-0.084;2022-11-09T05:09:46;6.20;;;1.92;;
35456;SDS011;21575;51.538;-0.084;2022-11-09T05:12:11;6.93;;;1.05;;
35456;SDS011;21575;51.538;-0.084;2022-11-09T05:14:37;4.07;;;0.90;;
35456;SDS011;21575;51.538;-0.084;2022-11-09T05:17:03;3.80;;;1.15;;
35456;SDS011;21575;51.538;-0.084;2022-11-09T05:19:28;7.53;;;1.45;;
35456;SDS011;21575;51.538;-0.084;2022-11-09T05:21:54;8.57;;;1.23;;
35456;SDS011;21575;51.538;-0.084;2022-11-09T05:24:20;6.00;;;1.60;;
35456;SDS011;21575;51.538;-0.084;2022-11-09T05:26:45;5.70;;;1.25;;
35456;SDS011;21575;51.538;-0.084;2022-11-09T05:29:11;5.00;;;1.52;;
35456;SDS011;21575;51.538;-0.084;2022-11-09T05:31:38;5.55;;;1.50;;
35456;SDS011;21575;51.538;-0.084;2022-11-09T05:34:04;9.55;;;1.63;;
35456;SDS011;21575;51.538;-0.084;2022-11-09T05:36:31;2.85;;;1.02;;
35456;SDS011;21575;51.538;-0.084;2022-11-09T05:38:58;6.30;;;0.68;;
35456;SDS011;21575;51.538;-0.084;2022-11-09T05:41:23;3.95;;;0.77;;
35456;SDS011;21575;51.538;-0.084;2022-11-09T05:43:49;6.65;;;0.90;;
35456;SDS011;21575;51.538;-0.084;2022-11-09T05:46:15;5.30;;;1.08;;
35456;SDS011;21575;51.538;-0.084;2022-11-09T05:48:42;2.63;;;0.47;;
35456;SDS011;21575;51.538;-0.084;2022-11-09T05:51:09;1.98;;;0.38;;
35456;SDS011;21575;51.538;-0.084;2022-11-09T05:53:36;4.10;;;0.73;;
35456;SDS011;21575;51.538;-0.084;2022-11-09T05:56:03;3.30;;;0.70;;
35456;SDS011;21575;51.538;-0.084;2022-11-09T05:58:33;6.13;;;1.20;;
35456;SDS011;21575;51.538;-0.084;2022-11-09T06:01:05;3.58;;;0.90;;
35456;SDS011;21575;51.538;-0.084;2022-11-09T06:03:32;5.93;;;1.60;;
35456;SDS011;21575;51.538;-0.084;2022-11-09T06:05:59;3.05;;;1.02;;
35456;SDS011;21575;51.538;-0.084;2022-11-09T06:08:27;4.70;;;0.80;;
35456;SDS011;21575;51.538;-0.084;2022-11-09T06:11:00;4.88;;;0.85;;
35456;SDS011;21575;51.538;-0.084;2022-11-09T06:13:27;2.35;;;0.73;;
35456;SDS011;21575;51.538;-0.084;2022-11-09T06:15:54;5.43;;;0.73;;
35456;SDS011;21575;51.538;-0.084;2022-11-09T06:18:24;3.33;;;0.60;;
35456;SDS011;21575;51.538;-0.084;2022-11-09T06:20:51;4.05;;;0.88;;
35456;SDS011;21575;51.538;-0.084;2022-11-09T06:23:18;2.83;;;0.77;;
35456;SDS011;21575;51.538;-0.084;2022-11-09T06:25:44;4.20;;;0.68;;
35456;SDS011;21575;51.538;-0.084;2022-11-09T06:28:09;1.67;;;0.75;;
35456;SDS011;21575;51.538;-0.084;2022-11-09T06:30:35;3.75;;;0.85;;
35456;SDS011;21575;51.538;-0.084;2022-11-09T06:33:01;4.97;;;1.20;;
35456;SDS011;21575;51.538;-0.084;2022-11-09T06:35:27;3.97;;;0.82;;
35456;SDS011;21575;51.538;-0.084;2022-11-09T06:37:57;4.82;;;0.93;;
35456;SDS011;21575;51.538;-0.084;2022-11-09T06:40:23;6.53;;;1.15;;
35456;SDS011;21575;51.538;-0.084;2022-11-09T06:42:49;5.25;;;0.80;;
35456;SDS011;21575;51.538;-0.084;2022-11-09T06:45:15;4.00;;;0.70;;
35456;SDS011;21575;51.538;-0.084;2022-11-09T06:47:40;4.28;;;1.90;;
35456;SDS011;21575;51.538;-0.084;2022-11-09T06:50:06;3.45;;;1.38;;
35456;SDS011;21575;51.538;-0.084;2022-11-09T06:52:33;4.63;;;2.75;;
35456;SDS011;21575;51.538;-0.084;2022-11-09T06:54:59;5.60;;;1.98;;
35456;SDS011;21575;51.538;-0.084;2022-11-09T06:57:27;6.05;;;1.10;;
35456;SDS011;21575;51.538;-0.084;2022-11-09T06:59:53;7.78;;;3.20;;
35456;SDS011;21575;51.538;-0.084;2022-11-09T07:02:19;5.80;;;2.03;;
35456;SDS011;21575;51.538;-0.084;2022-11-09T07:04:46;4.07;;;0.88;;
35456;SDS011;21575;51.538;-0.084;2022-11-09T07:07:15;3.55;;;0.57;;
35456;SDS011;21575;51.538;-0.084;2022-11-09T07:09:40;3.15;;;0.82;;
35456;SDS011;21575;51.538;-0.084;2022-11-09T07:12:07;4.07;;;0.70;;
35456;SDS011;21575;51.538;-0.084;2022-11-09T07:14:33;2.05;;;0.80;;
35456;SDS011;21575;51.538;-0.084;2022-11-09T07:16:59;4.40;;;1.00;;
35456;SDS011;21575;51.538;-0.084;2022-11-09T07:19:27;4.53;;;1.27;;
35456;SDS011;21575;51.538;-0.084;2022-11-09T07:21:54;4.78;;;1.00;;
35456;SDS011;21575;51.538;-0.084;2022-11-09T07:24:20;3.83;;;1.10;;
35456;SDS011;21575;51.538;-0.084;2022-11-09T07:26:46;1.88;;;0.75;;
35456;SDS011;21575;51.538;-0.084;2022-11-09T07:29:13;4.47;;;1.23;;
35456;SDS011;21575;51.538;-0.084;2022-11-09T07:31:38;6.97;;;1.30;;
35456;SDS011;21575;51.538;-0.084;2022-11-09T07:34:04;6.38;;;1.55;;
35456;SDS011;21575;51.538;-0.084;2022-11-09T07:36:30;4.22;;;1.13;;
35456;SDS011;21575;51.538;-0.084;2022-11-09T07:38:56;4.20;;;2.00;;
35456;SDS011;21575;51.538;-0.084;2022-11-09T07:41:22;3.90;;;0.73;;
35456;SDS011;21575;51.538;-0.084;2022-11-09T07:43:48;5.35;;;1.48;;
35456;SDS011;21575;51.538;-0.084;2022-11-09T07:46:14;3.33;;;0.82;;
35456;SDS011;21575;51.538;-0.084;2022-11-09T07:48:39;3.47;;;1.15;;
35456;SDS011;21575;51.538;-0.084;2022-11-09T07:51:05;3.78;;;1.08;;
35456;SDS011;21575;51.538;-0.084;2022-11-09T07:53:31;5.28;;;1.08;;
35456;SDS011;21575;51.538;-0.084;2022-11-09T07:55:57;7.25;;;1.23;;
35456;SDS011;21575;51.538;-0.084;2022-11-09T07:58:23;3.45;;;0.80;;
35456;SDS011;21575;51.538;-0.084;2022-11-09T08:00:49;4.47;;;0.90;;
35456;SDS011;21575;51.538;-0.084;2022-11-09T08:03:16;2.70;;;0.95;;
35456;SDS011;21575;51.538;-0.084;2022-11-09T08:05:43;6.20;;;1.10;;
35456;SDS011;21575;51.538;-0.084;2022-11-09T08:08:09;5.25;;;1.30;;
35456;SDS011;21575;51.538;-0.084;2022-11-09T08:10:36;4.15;;;1.35;;
35456;SDS011;21575;51.538;-0.084;2022-11-09T08:13:04;2.63;;;1.05;;
35456;SDS011;21575;51.538;-0.084;2022-11-09T08:15:32;6.50;;;1.30;;
35456;SDS011;21575;51.538;-0.084;2022-11-09T08:17:59;5.65;;;1.50;;
35456;SDS011;21575;51.538;-0.084;2022-11-09T08:20:26;4.00;;;1.50;;
35456;SDS011;21575;51.538;-0.084;2022-11-09T08:22:52;4.93;;;1.73;;
35456;SDS011;21575;51.538;-0.084;2022-11-09T08:25:18;6.40;;;2.28;;
35456;SDS011;21575;51.538;-0.084;2022-11-09T08:27:44;8.02;;;1.20;;
35456;SDS011;21575;51.538;-0.084;2022-11-09T08:30:11;8.02;;;1.27;;
35456;SDS011;21575;51.538;-0.084;2022-11-09T08:32:39;4.72;;;1.23;;
35456;SDS011;21575;51.538;-0.084;2022-11-09T08:35:06;4.03;;;1.33;;
35456;SDS011;21575;51.538;-0.084;2022-11-09T08:37:34;4.82;;;1.00;;
35456;SDS011;21575;51.538;-0.084;2022-11-09T08:40:00;4.57;;;1.25;;
35456;SDS011;21575;51.538;-0.084;2022-11-09T08:42:26;5.35;;;1.48;;
35456;SDS011;21575;51.538;-0.084;2022-11-09T08:44:51;4.82;;;0.90;;
35456;SDS011;21575;51.538;-0.084;2022-11-09T08:47:17;2.17;;;1.48;;
35456;SDS011;21575;51.538;-0.084;2022-11-09T08:49:42;3.25;;;1.00;;
35456;SDS011;21575;51.538;-0.084;2022-11-09T08:52:11;3.95;;;1.13;;
35456;SDS011;21575;51.538;-0.084;2022-11-09T08:54:36;4.95;;;1.27;;
35456;SDS011;21575;51.538;-0.084;2022-11-09T08:57:02;8.75;;;3.53;;
35456;SDS011;21575;51.538;-0.084;2022-11-09T08:59:28;5.45;;;1.45;;
35456;SDS011;21575;51.538;-0.084;2022-11-09T09:01:53;1.98;;;0.73;;
35456;SDS011;21575;51.538;-0.084;2022-11-09T09:04:19;6.25;;;1.45;;
35456;SDS011;21575;51.538;-0.084;2022-11-09T09:06:45;4.60;;;0.75;;
35456;SDS011;21575;51.538;-0.084;2022-11-09T09:09:10;4.40;;;0.90;;
35456;SDS011;21575;51.538;-0.084;2022-11-09T09:11:36;1.92;;;0.80;;
35456;SDS011;21575;51.538;-0.084;2022-11-09T09:14:01;4.70;;;1.10;;
35456;SDS011;21575;51.538;-0.084;2022-11-09T09:16:27;5.95;;;1.67;;
35456;SDS011;21575;51.538;-0.084;2022-11-09T09:18:53;4.60;;;0.85;;
35456;SDS011;21575;51.538;-0.084;2022-11-09T09:21:18;12.13;;;1.20;;
35456;SDS011;21575;51.538;-0.084;2022-11-09T09:23:45;4.18;;;1.38;;
35456;SDS011;21575;51.538;-0.084;2022-11-09T09:26:12;4.55;;;1.83;;
35456;SDS011;21575;51.538;-0.084;2022-11-09T09:28:38;4.13;;;0.80;;
35456;SDS011;21575;51.538;-0.084;2022-11-09T09:31:04;3.28;;;1.27;;
35456;SDS011;21575;51.538;-0.084;2022-11-09T09:33:30;3.03;;;0.80;;
35456;SDS011;21575;51.538;-0.084;2022-11-09T09:35:56;5.97;;;1.30;;
35456;SDS011;21575;51.538;-0.084;2022-11-09T09:38:26;6.65;;;0.90;;
35456;SDS011;21575;51.538;-0.084;2022-11-09T09:40:57;3.70;;;0.75;;
35456;SDS011;21575;51.538;-0.084;2022-11-09T09:43:34;4.97;;;1.10;;
35456;SDS011;21575;51.538;-0.084;2022-11-09T09:46:08;2.78;;;0.93;;
35456;SDS011;21575;51.538;-0.084;2022-11-09T09:48:50;1.90;;;0.73;;
35456;SDS011;21575;51.538;-0.084;2022-11-09T09:54:17;2.55;;;1.00;;
35456;SDS011;21575;51.538;-0.084;2022-11-09T09:56:49;3.80;;;0.90;;
35456;SDS011;21575;51.538;-0.084;2022-11-09T09:59:19;2.63;;;0.75;;
35456;SDS011;21575;51.538;-0.084;2022-11-09T10:01:57;2.42;;;0.60;;
35456;SDS011;21575;51.538;-0.084;2022-11-09T10:04:36;3.40;;;1.17;;
35456;SDS011;21575;51.538;-0.084;2022-11-09T10:15:32;9.68;;;2.00;;
35456;SDS011;21575;51.538;-0.084;2022-11-09T10:20:49;3.17;;;0.98;;
35456;SDS011;21575;51.538;-0.084;2022-11-09T10:23:37;3.67;;;1.58;;
35456;SDS011;21575;51.538;-0.084;2022-11-09T10:26:24;2.60;;;0.98;;
35456;SDS011;21575;51.538;-0.084;2022-11-09T10:28:59;0.90;;;0.40;;
35456;SDS011;21575;51.538;-0.084;2022-11-09T10:31:29;1.13;;;0.32;;
35456;SDS011;21575;51.538;-0.084;2022-11-09T10:33:57;11.50;;;1.58;;
35456;SDS011;21575;51.538;-0.084;2022-11-09T10:36:31;2.65;;;0.68;;
35456;SDS011;21575;51.538;-0.084;2022-11-09T10:39:07;3.38;;;0.80;;
35456;SDS011;21575;51.538;-0.084;2022-11-09T10:41:44;3.67;;;1.15;;
35456;SDS011;21575;51.538;-0.084;2022-11-09T10:44:13;3.10;;;0.93;;
35456;SDS011;21575;51.538;-0.084;2022-11-09T10:49:27;2.17;;;0.55;;
35456;SDS011;21575;51.538;-0.084;2022-11-09T10:51:53;2.75;;;1.08;;
35456;SDS011;21575;51.538;-0.084;2022-11-09T10:54:22;5.03;;;0.95;;
35456;SDS011;21575;51.538;-0.084;2022-11-09T10:56:57;2.38;;;0.98;;
35456;SDS011;21575;51.538;-0.084;2022-11-09T10:59:38;3.83;;;0.73;;
35456;SDS011;21575;51.538;-0.084;2022-11-09T11:04:49;3.83;;;0.80;;
35456;SDS011;21575;51.538;-0.084;2022-11-09T11:07:27;4.78;;;1.00;;
35456;SDS011;21575;51.538;-0.084;2022-11-09T11:09:52;5.68;;;0.80;;
35456;SDS011;21575;51.538;-0.084;2022-11-09T11:12:18;3.00;;;0.60;;
35456;SDS011;21575;51.538;-0.084;2022-11-09T11:14:44;2.22;;;0.77;;
35456;SDS011;21575;51.538;-0.084;2022-11-09T11:25:35;4.60;;;0.63;;
35456;SDS011;21575;51.538;-0.084;2022-11-09T11:28:27;1.25;;;0.82;;
35456;SDS011;21575;51.538;-0.084;2022-11-09T11:31:06;7.97;;;0.90;;
35456;SDS011;21575;51.538;-0.084;2022-11-09T11:33:37;2.58;;;0.60;;
35456;SDS011;21575;51.538;-0.084;2022-11-09T11:36:16;2.35;;;0.40;;
35456;SDS011;21575;51.538;-0.084;2022-11-09T11:44:25;2.10;;;0.85;;
35456;SDS011;21575;51.538;-0.084;2022-11-09T11:46:59;4.35;;;0.80;;
35456;SDS011;21575;51.538;-0.084;2022-11-09T11:52:21;2.95;;;1.45;;
35456;SDS011;21575;51.538;-0.084;2022-11-09T11:55:16;3.42;;;1.00;;
35456;SDS011;21575;51.538;-0.084;2022-11-09T12:00:20;3.58;;;0.85;;
35456;SDS011;21575;51.538;-0.084;2022-11-09T12:11:05;3.53;;;0.85;;
35456;SDS011;21575;51.538;-0.084;2022-11-09T12:19:23;2.40;;;0.67;;
35456;SDS011;21575;51.538;-0.084;2022-11-09T12:24:51;4.82;;;0.68;;
35456;SDS011;21575;51.538;-0.084;2022-11-09T12:30:22;3.25;;;1.27;;
35456;SDS011;21575;51.538;-0.084;2022-11-09T12:38:18;3.63;;;0.77;;
35456;SDS011;21575;51.538;-0.084;2022-11-09T12:40:52;6.82;;;1.52;;
35456;SDS011;21575;51.538;-0.084;2022-11-09T12:43:30;1.27;;;0.60;;
35456;SDS011;21575;51.538;-0.084;2022-11-09T12:46:04;1.05;;;0.50;;
35456;SDS011;21575;51.538;-0.084;2022-11-09T12:48:32;1.58;;;0.70;;
35456;SDS011;21575;51.538;-0.084;2022-11-09T12:51:00;4.32;;;0.70;;
35456;SDS011;21575;51.538;-0.084;2022-11-09T12:53:29;1.45;;;0.60;;
35456;SDS011;21575;51.538;-0.084;2022-11-09T12:56:13;4.30;;;0.60;;
35456;SDS011;21575;51.538;-0.084;2022-11-09T13:01:10;2.33;;;0.73;;
35456;SDS011;21575;51.538;-0.084;2022-11-09T13:04:05;2.95;;;0.52;;
35456;SDS011;21575;51.538;-0.084;2022-11-09T13:06:31;3.30;;;0.60;;
35456;SDS011;21575;51.538;-0.084;2022-11-09T13:14:52;3.90;;;1.42;;
35456;SDS011;21575;51.538;-0.084;2022-11-09T13:17:00;4.68;;;0.73;;
35456;SDS011;21575;51.538;-0.084;2022-11-09T13:24:56;3.28;;;1.15;;
35456;SDS011;21575;51.538;-0.084;2022-11-09T13:29:57;2.45;;;0.70;;
35456;SDS011;21575;51.538;-0.084;2022-11-09T13:32:25;3.78;;;0.75;;
35456;SDS011;21575;51.538;-0.084;2022-11-09T13:34:53;4.10;;;0.80;;
35456;SDS011;21575;51.538;-0.084;2022-11-09T13:50:57;4.70;;;1.60;;
35456;SDS011;21575;51.538;-0.084;2022-11-09T13:56:12;4.68;;;1.25;;
35456;SDS011;21575;51.538;-0.084;2022-11-09T13:58:41;4.78;;;1.15;;
35456;SDS011;21575;51.538;-0.084;2022-11-09T14:01:29;3.65;;;1.02;;
35456;SDS011;21575;51.538;-0.084;2022-11-09T14:03:54;2.70;;;1.08;;
35456;SDS011;21575;51.538;-0.084;2022-11-09T14:06:20;4.63;;;0.80;;
35456;SDS011;21575;51.538;-0.084;2022-11-09T14:08:46;3.83;;;0.85;;
35456;SDS011;21575;51.538;-0.084;2022-11-09T14:20:05;3.85;;;0.93;;
35456;SDS011;21575;51.538;-0.084;2022-11-09T14:22:41;1.45;;;0.73;;
35456;SDS011;21575;51.538;-0.084;2022-11-09T14:25:17;3.10;;;1.63;;
35456;SDS011;21575;51.538;-0.084;2022-11-09T14:27:46;2.40;;;0.93;;
35456;SDS011;21575;51.538;-0.084;2022-11-09T14:30:16;2.95;;;1.10;;
35456;SDS011;21575;51.538;-0.084;2022-11-09T14:32:49;3.28;;;0.80;;
35456;SDS011;21575;51.538;-0.084;2022-11-09T14:37:47;4.20;;;0.85;;
35456;SDS011;21575;51.538;-0.084;2022-11-09T14:40:23;5.00;;;2.20;;
35456;SDS011;21575;51.538;-0.084;2022-11-09T14:42:51;4.72;;;1.08;;
35456;SDS011;21575;51.538;-0.084;2022-11-09T14:45:17;3.20;;;1.33;;
35456;SDS011;21575;51.538;-0.084;2022-11-09T14:47:44;2.53;;;0.90;;
35456;SDS011;21575;51.538;-0.084;2022-11-09T14:50:22;4.10;;;0.75;;
35456;SDS011;21575;51.538;-0.084;2022-11-09T14:52:50;4.00;;;0.75;;
35456;SDS011;21575;51.538;-0.084;2022-11-09T14:55:18;4.57;;;1.00;;
35456;SDS011;21575;51.538;-0.084;2022-11-09T14:57:45;4.40;;;1.25;;
35456;SDS011;21575;51.538;-0.084;2022-11-09T15:02:57;3.78;;;0.90;;
35456;SDS011;21575;51.538;-0.084;2022-11-09T15:05:27;2.35;;;1.10;;
35456;SDS011;21575;51.538;-0.084;2022-11-09T15:07:53;4.35;;;1.67;;
35456;SDS011;21575;51.538;-0.084;2022-11-09T15:10:19;3.10;;;0.65;;
35456;SDS011;21575;51.538;-0.084;2022-11-09T15:12:47;2.35;;;0.95;;
35456;SDS011;21575;51.538;-0.084;2022-11-09T15:15:18;6.38;;;1.02;;
35456;SDS011;21575;51.538;-0.084;2022-11-09T15:17:46;3.97;;;0.90;;
35456;SDS011;21575;51.538;-0.084;2022-11-09T15:30:36;4.93;;;0.95;;
35456;SDS011;21575;51.538;-0.084;2022-11-09T15:35:55;2.72;;;1.52;;
35456;SDS011;21575;51.538;-0.084;2022-11-09T15:38:32;4.88;;;2.20;;
35456;SDS011;21575;51.538;-0.084;2022-11-09T15:41:01;12.55;;;5.30;;
35456;SDS011;21575;51.538;-0.084;2022-11-09T15:43:32;4.35;;;2.13;;
35456;SDS011;21575;51.538;-0.084;2022-11-09T15:45:59;4.55;;;1.58;;
35456;SDS011;21575;51.538;-0.084;2022-11-09T15:48:25;7.25;;;1.45;;
35456;SDS011;21575;51.538;-0.084;2022-11-09T15:50:51;6.25;;;1.77;;
35456;SDS011;21575;51.538;-0.084;2022-11-09T15:53:17;4.07;;;1.73;;
35456;SDS011;21575;51.538;-0.084;2022-11-09T15:55:42;5.15;;;1.00;;
35456;SDS011;21575;51.538;-0.084;2022-11-09T15:58:12;6.03;;;2.30;;
35456;SDS011;21575;51.538;-0.084;2022-11-09T16:00:38;9.30;;;5.70;;
35456;SDS011;21575;51.538;-0.084;2022-11-09T16:03:04;10.07;;;3.70;;
35456;SDS011;21575;51.538;-0.084;2022-11-09T16:05:30;5.95;;;2.88;;
35456;SDS011;21575;51.538;-0.084;2022-11-09T16:07:56;4.75;;;2.83;;
35456;SDS011;21575;51.538;-0.084;2022-11-09T16:10:22;4.35;;;1.77;;
35456;SDS011;21575;51.538;-0.084;2022-11-09T16:12:51;6.82;;;3.25;;
35456;SDS011;21575;51.538;-0.084;2022-11-09T16:15:18;5.95;;;1.60;;
35456;SDS011;21575;51.538;-0.084;2022-11-09T16:17:44;5.00;;;2.00;;
35456;SDS011;21575;51.538;-0.084;2022-11-09T16:20:10;3.58;;;1.70;;
35456;SDS011;21575;51.538;-0.084;2022-11-09T16:22:36;4.55;;;1.58;;
35456;SDS011;21575;51.538;-0.084;2022-11-09T16:25:01;6.28;;;1.55;;
35456;SDS011;21575;51.538;-0.084;2022-11-09T16:27:27;4.10;;;1.30;;
35456;SDS011;21575;51.538;-0.084;2022-11-09T16:29:53;4.38;;;1.13;;
35456;SDS011;21575;51.538;-0.084;2022-11-09T16:32:19;6.35;;;1.52;;
35456;SDS011;21575;51.538;-0.084;2022-11-09T16:34:45;2.70;;;1.20;;
35456;SDS011;21575;51.538;-0.084;2022-11-09T16:37:10;6.25;;;1.50;;
35456;SDS011;21575;51.538;-0.084;2022-11-09T16:39:36;5.43;;;1.70;;
35456;SDS011;21575;51.538;-0.084;2022-11-09T16:42:06;5.00;;;1.90;;
35456;SDS011;21575;51.538;-0.084;2022-11-09T16:44:34;5.10;;;1.67;;